sensor_id;sensor_type;location;lat;lon;timestamp;P1;durP1;ratioP1;P2;durP2;ratioP2
52848;SDS011;38714;53.180;5.812;2022-11-11T00:01:44;6.05;;;5.43;;
52848;SDS011;38714;53.180;5.812;2022-11-11T00:04:09;9.48;;;5.25;;
52848;SDS011;38714;53.180;5.812;2022-11-11T00:06:35;10.70;;;5.30;;
52848;SDS011;38714;53.180;5.812;2022-11-11T00:09:00;7.95;;;4.80;;
52848;SDS011;38714;53.180;5.812;2022-11-11T00:11:26;10.20;;;4.53;;
52848;SDS011;38714;53.180;5.812;2022-11-11T00:13:52;10.85;;;5.70;;
52848;SDS011;38714;53.180;5.812;2022-11-11T00:16:18;8.55;;;5.53;;
52848;SDS011;38714;53.180;5.812;2022-11-11T00:18:45;9.63;;;5.25;;
52848;SDS011;38714;53.180;5.812;2022-11-11T00:21:30;4.68;;;4.03;;
52848;SDS011;38714;53.180;5.812;2022-11-11T00:24:07;9.18;;;5.07;;
52848;SDS011;38714;53.180;5.812;2022-11-11T00:27:07;10.43;;;7.00;;
52848;SDS011;38714;53.180;5.812;2022-11-11T00:29:33;12.13;;;5.93;;
52848;SDS011;38714;53.180;5.812;2022-11-11T00:31:59;7.53;;;5.43;;
52848;SDS011;38714;53.180;5.812;2022-11-11T00:34:43;7.10;;;5.85;;
52848;SDS011;38714;53.180;5.812;2022-11-11T00:37:28;7.93;;;5.82;;
52848;SDS011;38714;53.180;5.812;2022-11-11T00:39:54;8.25;;;5.15;;
52848;SDS011;38714;53.180;5.812;2022-11-11T00:42:20;12.88;;;6.47;;
52848;SDS011;38714;53.180;5.812;2022-11-11T00:44:45;11.85;;;6.13;;
52848;SDS011;38714;53.180;5.812;2022-11-11T00:47:11;7.55;;;5.45;;
52848;SDS011;38714;53.180;5.812;2022-11-11T00:49:55;8.82;;;6.05;;
52848;SDS011;38714;53.180;5.812;2022-11-11T00:52:39;10.73;;;7.10;;
52848;SDS011;38714;53.180;5.812;2022-11-11T00:55:05;9.45;;;6.50;;
52848;SDS011;38714;53.180;5.812;2022-11-11T00:57:31;9.10;;;5.68;;
52848;SDS011;38714;53.180;5.812;2022-11-11T00:59:56;9.23;;;6.13;;
52848;SDS011;38714;53.180;5.812;2022-11-11T01:02:22;9.52;;;6.15;;
52848;SDS011;38714;53.180;5.812;2022-11-11T01:04:48;18.70;;;6.85;;
52848;SDS011;38714;53.180;5.812;2022-11-11T01:07:13;10.25;;;6.00;;
52848;SDS011;38714;53.180;5.812;2022-11-11T01:09:39;10.65;;;6.25;;
52848;SDS011;38714;53.180;5.812;2022-11-11T01:12:04;8.18;;;6.13;;
52848;SDS011;38714;53.180;5.812;2022-11-11T01:14:30;7.93;;;5.15;;
52848;SDS011;38714;53.180;5.812;2022-11-11T01:16:55;13.77;;;6.30;;
52848;SDS011;38714;53.180;5.812;2022-11-11T01:19:21;10.25;;;6.10;;
52848;SDS011;38714;53.180;5.812;2022-11-11T01:21:47;13.63;;;5.95;;
52848;SDS011;38714;53.180;5.812;2022-11-11T01:24:12;8.70;;;6.43;;
52848;SDS011;38714;53.180;5.812;2022-11-11T01:26:38;9.00;;;5.43;;
52848;SDS011;38714;53.180;5.812;2022-11-11T01:29:03;11.93;;;6.78;;
52848;SDS011;38714;53.180;5.812;2022-11-11T01:31:29;10.10;;;6.28;;
52848;SDS011;38714;53.180;5.812;2022-11-11T01:33:54;10.13;;;6.18;;
52848;SDS011;38714;53.180;5.812;2022-11-11T01:36:21;7.47;;;5.60;;
52848;SDS011;38714;53.180;5.812;2022-11-11T01:38:52;13.43;;;7.50;;
52848;SDS011;38714;53.180;5.812;2022-11-11T01:41:23;9.47;;;5.53;;
52848;SDS011;38714;53.180;5.812;2022-11-11T01:44:16;8.07;;;5.65;;
52848;SDS011;38714;53.180;5.812;2022-11-11T01:46:45;9.57;;;6.93;;
52848;SDS011;38714;53.180;5.812;2022-11-11T01:49:18;9.52;;;6.05;;
52848;SDS011;38714;53.180;5.812;2022-11-11T01:59:47;9.27;;;6.53;;
52848;SDS011;38714;53.180;5.812;2022-11-11T02:02:21;9.52;;;5.95;;
52848;SDS011;38714;53.180;5.812;2022-11-11T02:04:51;8.32;;;6.30;;
52848;SDS011;38714;53.180;5.812;2022-11-11T02:07:36;7.68;;;5.78;;
52848;SDS011;38714;53.180;5.812;2022-11-11T02:10:04;9.02;;;5.38;;
52848;SDS011;38714;53.180;5.812;2022-11-11T02:12:32;10.18;;;5.90;;
52848;SDS011;38714;53.180;5.812;2022-11-11T02:15:16;12.32;;;6.25;;
52848;SDS011;38714;53.180;5.812;2022-11-11T02:17:42;14.05;;;7.75;;
52848;SDS011;38714;53.180;5.812;2022-11-11T02:20:07;8.77;;;6.10;;
52848;SDS011;38714;53.180;5.812;2022-11-11T02:25:19;18.02;;;7.95;;
52848;SDS011;38714;53.180;5.812;2022-11-11T02:27:47;10.57;;;6.75;;
52848;SDS011;38714;53.180;5.812;2022-11-11T02:30:16;10.05;;;7.47;;
52848;SDS011;38714;53.180;5.812;2022-11-11T02:32:43;13.95;;;8.07;;
52848;SDS011;38714;53.180;5.812;2022-11-11T02:35:12;15.10;;;8.93;;
52848;SDS011;38714;53.180;5.812;2022-11-11T02:37:50;11.93;;;8.73;;
52848;SDS011;38714;53.180;5.812;2022-11-11T02:40:28;15.65;;;8.52;;
52848;SDS011;38714;53.180;5.812;2022-11-11T02:43:00;16.83;;;8.50;;
52848;SDS011;38714;53.180;5.812;2022-11-11T02:45:25;16.20;;;10.05;;
52848;SDS011;38714;53.180;5.812;2022-11-11T02:47:51;17.02;;;9.15;;
52848;SDS011;38714;53.180;5.812;2022-11-11T02:50:17;11.73;;;8.15;;
52848;SDS011;38714;53.180;5.812;2022-11-11T02:52:42;13.20;;;9.60;;
52848;SDS011;38714;53.180;5.812;2022-11-11T02:55:08;12.88;;;7.65;;
52848;SDS011;38714;53.180;5.812;2022-11-11T02:57:34;11.95;;;8.82;;
52848;SDS011;38714;53.180;5.812;2022-11-11T03:00:01;9.80;;;7.88;;
52848;SDS011;38714;53.180;5.812;2022-11-11T03:02:28;11.30;;;9.43;;
52848;SDS011;38714;53.180;5.812;2022-11-11T03:04:54;13.73;;;9.43;;
52848;SDS011;38714;53.180;5.812;2022-11-11T03:07:21;11.38;;;8.20;;
52848;SDS011;38714;53.180;5.812;2022-11-11T03:09:48;13.60;;;7.80;;
52848;SDS011;38714;53.180;5.812;2022-11-11T03:12:13;11.98;;;8.00;;
52848;SDS011;38714;53.180;5.812;2022-11-11T03:14:40;14.90;;;8.73;;
52848;SDS011;38714;53.180;5.812;2022-11-11T03:17:05;14.52;;;7.63;;
52848;SDS011;38714;53.180;5.812;2022-11-11T03:19:50;14.02;;;9.27;;
52848;SDS011;38714;53.180;5.812;2022-11-11T03:22:16;11.02;;;7.45;;
52848;SDS011;38714;53.180;5.812;2022-11-11T03:24:41;18.10;;;8.55;;
52848;SDS011;38714;53.180;5.812;2022-11-11T03:27:26;15.65;;;8.38;;
52848;SDS011;38714;53.180;5.812;2022-11-11T03:29:52;8.02;;;7.05;;
52848;SDS011;38714;53.180;5.812;2022-11-11T03:32:17;15.18;;;8.10;;
52848;SDS011;38714;53.180;5.812;2022-11-11T03:34:43;9.75;;;7.10;;
52848;SDS011;38714;53.180;5.812;2022-11-11T03:37:09;10.68;;;8.13;;
52848;SDS011;38714;53.180;5.812;2022-11-11T03:39:54;10.30;;;7.72;;
52848;SDS011;38714;53.180;5.812;2022-11-11T03:42:20;8.18;;;7.40;;
52848;SDS011;38714;53.180;5.812;2022-11-11T03:44:45;10.85;;;8.60;;
52848;SDS011;38714;53.180;5.812;2022-11-11T03:47:11;13.02;;;9.52;;
52848;SDS011;38714;53.180;5.812;2022-11-11T03:49:37;15.73;;;9.82;;
52848;SDS011;38714;53.180;5.812;2022-11-11T03:52:02;13.20;;;10.60;;
52848;SDS011;38714;53.180;5.812;2022-11-11T03:54:28;15.13;;;10.10;;
52848;SDS011;38714;53.180;5.812;2022-11-11T03:56:54;16.17;;;11.05;;
52848;SDS011;38714;53.180;5.812;2022-11-11T03:59:42;21.83;;;11.77;;
52848;SDS011;38714;53.180;5.812;2022-11-11T04:02:11;17.40;;;12.20;;
52848;SDS011;38714;53.180;5.812;2022-11-11T04:04:56;19.02;;;12.38;;
52848;SDS011;38714;53.180;5.812;2022-11-11T04:07:40;18.48;;;11.63;;
52848;SDS011;38714;53.180;5.812;2022-11-11T04:10:25;19.58;;;12.15;;
52848;SDS011;38714;53.180;5.812;2022-11-11T04:12:52;20.90;;;14.15;;
52848;SDS011;38714;53.180;5.812;2022-11-11T04:15:37;17.13;;;13.30;;
52848;SDS011;38714;53.180;5.812;2022-11-11T04:18:21;13.75;;;12.02;;
52848;SDS011;38714;53.180;5.812;2022-11-11T04:21:07;20.50;;;13.27;;
52848;SDS011;38714;53.180;5.812;2022-11-11T04:23:51;21.13;;;14.05;;
52848;SDS011;38714;53.180;5.812;2022-11-11T04:26:17;17.88;;;13.32;;
52848;SDS011;38714;53.180;5.812;2022-11-11T04:28:43;15.65;;;13.32;;
52848;SDS011;38714;53.180;5.812;2022-11-11T04:31:27;23.63;;;13.30;;
52848;SDS011;38714;53.180;5.812;2022-11-11T04:33:52;19.15;;;12.57;;
52848;SDS011;38714;53.180;5.812;2022-11-11T04:36:18;23.00;;;15.13;;
52848;SDS011;38714;53.180;5.812;2022-11-11T04:38:43;19.35;;;12.68;;
52848;SDS011;38714;53.180;5.812;2022-11-11T04:41:27;15.15;;;12.93;;
52848;SDS011;38714;53.180;5.812;2022-11-11T04:43:53;17.50;;;12.48;;
52848;SDS011;38714;53.180;5.812;2022-11-11T04:46:37;25.48;;;14.43;;
52848;SDS011;38714;53.180;5.812;2022-11-11T04:49:02;21.42;;;14.68;;
52848;SDS011;38714;53.180;5.812;2022-11-11T04:51:28;22.98;;;15.02;;
52848;SDS011;38714;53.180;5.812;2022-11-11T04:54:13;24.70;;;15.32;;
52848;SDS011;38714;53.180;5.812;2022-11-11T04:56:39;21.52;;;13.10;;
52848;SDS011;38714;53.180;5.812;2022-11-11T04:59:18;23.42;;;13.98;;
52848;SDS011;38714;53.180;5.812;2022-11-11T05:01:45;27.00;;;15.73;;
52848;SDS011;38714;53.180;5.812;2022-11-11T05:04:29;19.48;;;13.85;;
52848;SDS011;38714;53.180;5.812;2022-11-11T05:06:55;17.30;;;12.52;;
52848;SDS011;38714;53.180;5.812;2022-11-11T05:09:39;20.70;;;13.95;;
52848;SDS011;38714;53.180;5.812;2022-11-11T05:12:05;32.53;;;15.63;;
52848;SDS011;38714;53.180;5.812;2022-11-11T05:14:31;24.35;;;16.73;;
52848;SDS011;38714;53.180;5.812;2022-11-11T05:17:15;23.95;;;16.95;;
52848;SDS011;38714;53.180;5.812;2022-11-11T05:19:59;17.83;;;14.82;;
52848;SDS011;38714;53.180;5.812;2022-11-11T05:22:43;18.08;;;15.55;;
52848;SDS011;38714;53.180;5.812;2022-11-11T05:25:09;30.05;;;17.27;;
52848;SDS011;38714;53.180;5.812;2022-11-11T05:27:51;19.98;;;14.05;;
52848;SDS011;38714;53.180;5.812;2022-11-11T05:30:18;22.42;;;14.52;;
52848;SDS011;38714;53.180;5.812;2022-11-11T05:32:44;33.72;;;14.32;;
52848;SDS011;38714;53.180;5.812;2022-11-11T05:35:10;22.77;;;15.02;;
52848;SDS011;38714;53.180;5.812;2022-11-11T05:37:37;23.60;;;16.38;;
52848;SDS011;38714;53.180;5.812;2022-11-11T05:40:04;19.80;;;15.88;;
52848;SDS011;38714;53.180;5.812;2022-11-11T05:42:30;19.73;;;15.20;;
52848;SDS011;38714;53.180;5.812;2022-11-11T05:44:56;25.92;;;16.00;;
52848;SDS011;38714;53.180;5.812;2022-11-11T05:47:22;24.80;;;16.80;;
52848;SDS011;38714;53.180;5.812;2022-11-11T05:49:47;23.73;;;17.10;;
52848;SDS011;38714;53.180;5.812;2022-11-11T05:52:14;30.23;;;15.73;;
52848;SDS011;38714;53.180;5.812;2022-11-11T05:54:41;20.08;;;13.88;;
52848;SDS011;38714;53.180;5.812;2022-11-11T05:57:07;26.75;;;15.63;;
52848;SDS011;38714;53.180;5.812;2022-11-11T05:59:33;23.02;;;15.75;;
52848;SDS011;38714;53.180;5.812;2022-11-11T06:01:58;22.58;;;14.40;;
52848;SDS011;38714;53.180;5.812;2022-11-11T06:04:24;25.20;;;15.55;;
52848;SDS011;38714;53.180;5.812;2022-11-11T06:06:50;21.95;;;15.50;;
52848;SDS011;38714;53.180;5.812;2022-11-11T06:09:16;24.30;;;17.60;;
52848;SDS011;38714;53.180;5.812;2022-11-11T06:11:42;27.80;;;16.30;;
52848;SDS011;38714;53.180;5.812;2022-11-11T06:14:07;41.35;;;17.60;;
52848;SDS011;38714;53.180;5.812;2022-11-11T06:16:33;24.98;;;17.27;;
52848;SDS011;38714;53.180;5.812;2022-11-11T06:18:58;30.17;;;17.02;;
52848;SDS011;38714;53.180;5.812;2022-11-11T06:21:24;27.52;;;17.17;;
52848;SDS011;38714;53.180;5.812;2022-11-11T06:23:51;30.83;;;17.58;;
52848;SDS011;38714;53.180;5.812;2022-11-11T06:26:16;23.98;;;18.65;;
52848;SDS011;38714;53.180;5.812;2022-11-11T06:28:47;24.48;;;17.67;;
52848;SDS011;38714;53.180;5.812;2022-11-11T06:31:14;25.83;;;17.77;;
52848;SDS011;38714;53.180;5.812;2022-11-11T06:33:44;23.27;;;16.58;;
52848;SDS011;38714;53.180;5.812;2022-11-11T06:36:11;28.50;;;17.35;;
52848;SDS011;38714;53.180;5.812;2022-11-11T06:38:39;22.60;;;15.75;;
52848;SDS011;38714;53.180;5.812;2022-11-11T06:41:05;26.65;;;18.23;;
52848;SDS011;38714;53.180;5.812;2022-11-11T06:43:31;22.00;;;16.27;;
52848;SDS011;38714;53.180;5.812;2022-11-11T06:45:57;26.77;;;15.30;;
52848;SDS011;38714;53.180;5.812;2022-11-11T06:48:26;20.00;;;14.02;;
52848;SDS011;38714;53.180;5.812;2022-11-11T06:50:53;25.00;;;16.83;;
52848;SDS011;38714;53.180;5.812;2022-11-11T06:53:19;32.60;;;17.88;;
52848;SDS011;38714;53.180;5.812;2022-11-11T06:55:46;25.83;;;17.35;;
52848;SDS011;38714;53.180;5.812;2022-11-11T06:58:13;32.78;;;15.63;;
52848;SDS011;38714;53.180;5.812;2022-11-11T07:00:44;27.48;;;17.92;;
52848;SDS011;38714;53.180;5.812;2022-11-11T07:03:11;24.67;;;17.10;;
52848;SDS011;38714;53.180;5.812;2022-11-11T07:05:38;29.58;;;17.20;;
52848;SDS011;38714;53.180;5.812;2022-11-11T07:08:05;24.02;;;16.52;;
52848;SDS011;38714;53.180;5.812;2022-11-11T07:10:33;21.90;;;15.25;;
52848;SDS011;38714;53.180;5.812;2022-11-11T07:13:01;25.85;;;16.15;;
52848;SDS011;38714;53.180;5.812;2022-11-11T07:15:27;18.80;;;13.70;;
52848;SDS011;38714;53.180;5.812;2022-11-11T07:17:53;26.70;;;18.30;;
52848;SDS011;38714;53.180;5.812;2022-11-11T07:20:18;27.25;;;15.50;;
52848;SDS011;38714;53.180;5.812;2022-11-11T07:22:45;25.67;;;17.67;;
52848;SDS011;38714;53.180;5.812;2022-11-11T07:25:11;22.88;;;16.45;;
52848;SDS011;38714;53.180;5.812;2022-11-11T07:27:39;24.33;;;15.95;;
52848;SDS011;38714;53.180;5.812;2022-11-11T07:30:06;31.33;;;18.45;;
52848;SDS011;38714;53.180;5.812;2022-11-11T07:32:33;20.45;;;15.73;;
52848;SDS011;38714;53.180;5.812;2022-11-11T07:34:59;20.90;;;16.70;;
52848;SDS011;38714;53.180;5.812;2022-11-11T07:37:24;23.13;;;16.90;;
52848;SDS011;38714;53.180;5.812;2022-11-11T07:39:50;22.63;;;15.43;;
52848;SDS011;38714;53.180;5.812;2022-11-11T07:42:16;23.58;;;17.00;;
52848;SDS011;38714;53.180;5.812;2022-11-11T07:44:41;23.13;;;15.15;;
52848;SDS011;38714;53.180;5.812;2022-11-11T07:47:07;22.38;;;15.80;;
52848;SDS011;38714;53.180;5.812;2022-11-11T07:49:33;20.10;;;15.07;;
52848;SDS011;38714;53.180;5.812;2022-11-11T07:51:58;26.63;;;17.55;;
52848;SDS011;38714;53.180;5.812;2022-11-11T07:54:24;23.75;;;15.43;;
52848;SDS011;38714;53.180;5.812;2022-11-11T07:56:50;23.38;;;16.77;;
52848;SDS011;38714;53.180;5.812;2022-11-11T07:59:15;25.05;;;16.95;;
52848;SDS011;38714;53.180;5.812;2022-11-11T08:01:41;20.40;;;15.27;;
52848;SDS011;38714;53.180;5.812;2022-11-11T08:04:10;24.60;;;15.82;;
52848;SDS011;38714;53.180;5.812;2022-11-11T08:06:35;28.45;;;17.60;;
52848;SDS011;38714;53.180;5.812;2022-11-11T08:09:01;24.02;;;18.40;;
52848;SDS011;38714;53.180;5.812;2022-11-11T08:11:26;30.88;;;18.00;;
52848;SDS011;38714;53.180;5.812;2022-11-11T08:14:10;25.15;;;18.50;;
52848;SDS011;38714;53.180;5.812;2022-11-11T08:16:36;23.58;;;16.90;;
52848;SDS011;38714;53.180;5.812;2022-11-11T08:19:02;28.98;;;15.73;;
52848;SDS011;38714;53.180;5.812;2022-11-11T08:21:27;24.13;;;16.80;;
52848;SDS011;38714;53.180;5.812;2022-11-11T08:23:56;27.13;;;18.35;;
52848;SDS011;38714;53.180;5.812;2022-11-11T08:26:22;23.77;;;17.38;;
52848;SDS011;38714;53.180;5.812;2022-11-11T08:28:47;20.83;;;16.50;;
52848;SDS011;38714;53.180;5.812;2022-11-11T08:31:13;22.60;;;16.52;;
52848;SDS011;38714;53.180;5.812;2022-11-11T08:33:39;21.45;;;17.92;;
52848;SDS011;38714;53.180;5.812;2022-11-11T08:36:05;25.90;;;17.38;;
52848;SDS011;38714;53.180;5.812;2022-11-11T08:38:32;27.88;;;19.08;;
52848;SDS011;38714;53.180;5.812;2022-11-11T08:40:59;23.73;;;17.08;;
52848;SDS011;38714;53.180;5.812;2022-11-11T08:43:25;26.23;;;17.45;;
52848;SDS011;38714;53.180;5.812;2022-11-11T08:45:52;26.70;;;18.10;;
52848;SDS011;38714;53.180;5.812;2022-11-11T08:48:18;30.63;;;17.48;;
52848;SDS011;38714;53.180;5.812;2022-11-11T08:50:43;37.42;;;18.30;;
52848;SDS011;38714;53.180;5.812;2022-11-11T08:53:09;25.80;;;17.13;;
52848;SDS011;38714;53.180;5.812;2022-11-11T08:55:35;25.40;;;16.67;;
52848;SDS011;38714;53.180;5.812;2022-11-11T08:58:03;24.52;;;17.35;;
52848;SDS011;38714;53.180;5.812;2022-11-11T09:00:31;27.83;;;18.40;;
52848;SDS011;38714;53.180;5.812;2022-11-11T09:03:01;23.55;;;17.60;;
52848;SDS011;38714;53.180;5.812;2022-11-11T09:05:28;25.50;;;17.80;;
52848;SDS011;38714;53.180;5.812;2022-11-11T09:07:54;26.95;;;19.33;;
52848;SDS011;38714;53.180;5.812;2022-11-11T09:10:20;30.73;;;17.73;;
52848;SDS011;38714;53.180;5.812;2022-11-11T09:12:45;28.55;;;18.25;;
52848;SDS011;38714;53.180;5.812;2022-11-11T09:15:11;22.08;;;16.80;;
52848;SDS011;38714;53.180;5.812;2022-11-11T09:17:36;24.73;;;18.50;;
52848;SDS011;38714;53.180;5.812;2022-11-11T09:20:02;24.48;;;16.90;;
52848;SDS011;38714;53.180;5.812;2022-11-11T09:22:28;26.95;;;17.98;;
52848;SDS011;38714;53.180;5.812;2022-11-11T09:24:54;24.13;;;17.00;;
52848;SDS011;38714;53.180;5.812;2022-11-11T09:27:20;21.27;;;15.15;;
52848;SDS011;38714;53.180;5.812;2022-11-11T09:29:46;29.88;;;18.33;;
52848;SDS011;38714;53.180;5.812;2022-11-11T09:32:12;25.50;;;19.45;;
52848;SDS011;38714;53.180;5.812;2022-11-11T09:34:37;26.73;;;18.42;;
52848;SDS011;38714;53.180;5.812;2022-11-11T09:37:03;31.20;;;18.50;;
52848;SDS011;38714;53.180;5.812;2022-11-11T09:39:28;25.42;;;18.80;;
52848;SDS011;38714;53.180;5.812;2022-11-11T09:42:00;25.67;;;16.08;;
52848;SDS011;38714;53.180;5.812;2022-11-11T09:47:26;28.40;;;18.48;;
52848;SDS011;38714;53.180;5.812;2022-11-11T09:50:10;24.13;;;16.98;;
52848;SDS011;38714;53.180;5.812;2022-11-11T09:55:37;22.38;;;16.33;;
52848;SDS011;38714;53.180;5.812;2022-11-11T09:58:07;26.52;;;17.02;;
52848;SDS011;38714;53.180;5.812;2022-11-11T10:03:26;20.83;;;16.08;;
52848;SDS011;38714;53.180;5.812;2022-11-11T10:08:48;20.60;;;15.43;;
52848;SDS011;38714;53.180;5.812;2022-11-11T10:11:40;27.00;;;17.60;;
52848;SDS011;38714;53.180;5.812;2022-11-11T10:14:39;19.27;;;15.15;;
52848;SDS011;38714;53.180;5.812;2022-11-11T10:22:34;20.48;;;16.65;;
52848;SDS011;38714;53.180;5.812;2022-11-11T10:27:37;26.67;;;18.30;;
52848;SDS011;38714;53.180;5.812;2022-11-11T10:30:22;24.58;;;16.63;;
52848;SDS011;38714;53.180;5.812;2022-11-11T10:33:02;23.70;;;17.48;;
52848;SDS011;38714;53.180;5.812;2022-11-11T10:35:35;19.65;;;17.05;;
52848;SDS011;38714;53.180;5.812;2022-11-11T10:40:53;25.63;;;16.03;;
52848;SDS011;38714;53.180;5.812;2022-11-11T10:43:23;24.25;;;15.20;;
52848;SDS011;38714;53.180;5.812;2022-11-11T10:49:06;21.60;;;15.60;;
52848;SDS011;38714;53.180;5.812;2022-11-11T10:51:50;24.65;;;16.00;;
52848;SDS011;38714;53.180;5.812;2022-11-11T10:54:23;20.88;;;16.35;;
52848;SDS011;38714;53.180;5.812;2022-11-11T10:57:00;25.35;;;16.95;;
52848;SDS011;38714;53.180;5.812;2022-11-11T10:59:34;22.92;;;16.48;;
52848;SDS011;38714;53.180;5.812;2022-11-11T11:04:36;19.60;;;15.60;;
52848;SDS011;38714;53.180;5.812;2022-11-11T11:07:15;20.90;;;15.85;;
52848;SDS011;38714;53.180;5.812;2022-11-11T11:09:52;20.55;;;15.75;;
52848;SDS011;38714;53.180;5.812;2022-11-11T11:12:25;23.40;;;15.30;;
52848;SDS011;38714;53.180;5.812;2022-11-11T11:15:07;25.55;;;15.63;;
52848;SDS011;38714;53.180;5.812;2022-11-11T11:17:39;23.77;;;15.80;;
52848;SDS011;38714;53.180;5.812;2022-11-11T11:20:15;28.80;;;17.83;;
52848;SDS011;38714;53.180;5.812;2022-11-11T11:22:48;19.98;;;14.13;;
52848;SDS011;38714;53.180;5.812;2022-11-11T11:25:16;20.05;;;15.73;;
52848;SDS011;38714;53.180;5.812;2022-11-11T11:27:43;21.40;;;15.05;;
52848;SDS011;38714;53.180;5.812;2022-11-11T11:30:17;22.85;;;13.88;;
52848;SDS011;38714;53.180;5.812;2022-11-11T11:32:54;25.00;;;15.25;;
52848;SDS011;38714;53.180;5.812;2022-11-11T11:35:38;23.15;;;16.63;;
52848;SDS011;38714;53.180;5.812;2022-11-11T11:38:07;21.70;;;14.73;;
52848;SDS011;38714;53.180;5.812;2022-11-11T11:46:26;22.17;;;15.40;;
52848;SDS011;38714;53.180;5.812;2022-11-11T11:51:46;16.48;;;14.45;;
52848;SDS011;38714;53.180;5.812;2022-11-11T11:57:16;22.45;;;15.52;;
52848;SDS011;38714;53.180;5.812;2022-11-11T11:59:58;20.48;;;16.63;;
52848;SDS011;38714;53.180;5.812;2022-11-11T12:05:33;22.05;;;15.98;;
52848;SDS011;38714;53.180;5.812;2022-11-11T12:10:45;23.33;;;15.75;;
52848;SDS011;38714;53.180;5.812;2022-11-11T12:16:32;19.33;;;14.23;;
52848;SDS011;38714;53.180;5.812;2022-11-11T12:24:48;16.48;;;13.57;;
52848;SDS011;38714;53.180;5.812;2022-11-11T12:27:39;16.27;;;14.07;;
52848;SDS011;38714;53.180;5.812;2022-11-11T12:30:22;32.03;;;16.45;;
52848;SDS011;38714;53.180;5.812;2022-11-11T12:40:45;24.55;;;13.80;;
52848;SDS011;38714;53.180;5.812;2022-11-11T12:46:05;17.98;;;14.73;;
52848;SDS011;38714;53.180;5.812;2022-11-11T12:54:23;22.65;;;14.15;;
52848;SDS011;38714;53.180;5.812;2022-11-11T13:00:18;25.88;;;13.68;;
52848;SDS011;38714;53.180;5.812;2022-11-11T13:02:52;19.63;;;14.63;;
52848;SDS011;38714;53.180;5.812;2022-11-11T13:11:21;24.95;;;14.05;;
52848;SDS011;38714;53.180;5.812;2022-11-11T13:13:55;29.75;;;14.93;;
52848;SDS011;38714;53.180;5.812;2022-11-11T13:16:30;18.95;;;14.45;;
52848;SDS011;38714;53.180;5.812;2022-11-11T13:18:57;22.05;;;14.95;;
52848;SDS011;38714;53.180;5.812;2022-11-11T13:21:35;19.75;;;14.68;;
52848;SDS011;38714;53.180;5.812;2022-11-11T13:24:08;22.83;;;13.45;;
52848;SDS011;38714;53.180;5.812;2022-11-11T13:26:43;23.17;;;14.65;;
52848;SDS011;38714;53.180;5.812;2022-11-11T13:32:01;25.08;;;16.67;;
52848;SDS011;38714;53.180;5.812;2022-11-11T13:34:30;16.70;;;14.50;;
52848;SDS011;38714;53.180;5.812;2022-11-11T13:36:58;20.45;;;13.75;;
52848;SDS011;38714;53.180;5.812;2022-11-11T13:41:54;22.02;;;14.77;;
52848;SDS011;38714;53.180;5.812;2022-11-11T13:46:57;22.20;;;12.25;;
52848;SDS011;38714;53.180;5.812;2022-11-11T13:49:40;20.95;;;13.98;;
52848;SDS011;38714;53.180;5.812;2022-11-11T13:52:25;18.35;;;13.52;;
52848;SDS011;38714;53.180;5.812;2022-11-11T13:54:57;19.58;;;13.65;;
52848;SDS011;38714;53.180;5.812;2022-11-11T13:57:27;17.15;;;15.13;;
52848;SDS011;38714;53.180;5.812;2022-11-11T14:02:40;19.25;;;13.43;;
52848;SDS011;38714;53.180;5.812;2022-11-11T14:12:42;26.55;;;15.48;;
52848;SDS011;38714;53.180;5.812;2022-11-11T14:20:44;14.82;;;12.07;;
52848;SDS011;38714;53.180;5.812;2022-11-11T14:25:43;20.80;;;13.63;;
52848;SDS011;38714;53.180;5.812;2022-11-11T14:28:19;16.70;;;14.82;;
52848;SDS011;38714;53.180;5.812;2022-11-11T14:33:50;17.52;;;12.88;;
52848;SDS011;38714;53.180;5.812;2022-11-11T14:39:05;15.93;;;12.35;;
52848;SDS011;38714;53.180;5.812;2022-11-11T14:41:52;20.15;;;13.15;;
52848;SDS011;38714;53.180;5.812;2022-11-11T14:49:49;16.83;;;12.48;;
52848;SDS011;38714;53.180;5.812;2022-11-11T14:57:40;15.00;;;11.40;;
52848;SDS011;38714;53.180;5.812;2022-11-11T15:00:25;18.27;;;12.13;;
52848;SDS011;38714;53.180;5.812;2022-11-11T15:03:07;18.55;;;12.77;;
52848;SDS011;38714;53.180;5.812;2022-11-11T15:05:43;19.98;;;13.60;;
52848;SDS011;38714;53.180;5.812;2022-11-11T15:11:14;16.48;;;12.00;;
52848;SDS011;38714;53.180;5.812;2022-11-11T15:24:48;21.75;;;12.27;;
52848;SDS011;38714;53.180;5.812;2022-11-11T15:30:16;17.80;;;14.05;;
52848;SDS011;38714;53.180;5.812;2022-11-11T15:35:23;15.38;;;11.25;;
52848;SDS011;38714;53.180;5.812;2022-11-11T15:38:00;21.67;;;15.13;;
52848;SDS011;38714;53.180;5.812;2022-11-11T15:40:32;17.33;;;12.77;;
52848;SDS011;38714;53.180;5.812;2022-11-11T15:43:34;18.60;;;13.05;;
52848;SDS011;38714;53.180;5.812;2022-11-11T15:46:02;19.73;;;14.15;;
52848;SDS011;38714;53.180;5.812;2022-11-11T15:48:32;32.05;;;13.70;;
52848;SDS011;38714;53.180;5.812;2022-11-11T15:53:45;15.40;;;13.85;;
52848;SDS011;38714;53.180;5.812;2022-11-11T15:56:11;17.90;;;13.68;;
52848;SDS011;38714;53.180;5.812;2022-11-11T15:58:52;18.90;;;13.35;;
52848;SDS011;38714;53.180;5.812;2022-11-11T16:01:18;18.58;;;13.88;;
52848;SDS011;38714;53.180;5.812;2022-11-11T16:03:48;20.75;;;12.95;;
52848;SDS011;38714;53.180;5.812;2022-11-11T16:06:16;18.38;;;13.50;;
52848;SDS011;38714;53.180;5.812;2022-11-11T16:08:43;19.90;;;13.93;;
52848;SDS011;38714;53.180;5.812;2022-11-11T16:11:14;19.83;;;14.13;;
52848;SDS011;38714;53.180;5.812;2022-11-11T16:18:39;17.08;;;14.30;;
52848;SDS011;38714;53.180;5.812;2022-11-11T16:21:10;22.60;;;17.25;;
52848;SDS011;38714;53.180;5.812;2022-11-11T16:23:39;18.75;;;14.23;;
52848;SDS011;38714;53.180;5.812;2022-11-11T16:26:05;22.17;;;13.18;;
52848;SDS011;38714;53.180;5.812;2022-11-11T16:28:36;23.42;;;14.25;;
52848;SDS011;38714;53.180;5.812;2022-11-11T16:33:58;24.00;;;15.55;;
52848;SDS011;38714;53.180;5.812;2022-11-11T16:36:23;19.88;;;13.80;;
52848;SDS011;38714;53.180;5.812;2022-11-11T16:38:49;22.95;;;19.13;;
52848;SDS011;38714;53.180;5.812;2022-11-11T16:41:28;30.02;;;19.13;;
52848;SDS011;38714;53.180;5.812;2022-11-11T16:43:57;18.80;;;15.65;;
52848;SDS011;38714;53.180;5.812;2022-11-11T16:49:12;20.80;;;14.00;;
52848;SDS011;38714;53.180;5.812;2022-11-11T16:51:53;23.80;;;14.82;;
52848;SDS011;38714;53.180;5.812;2022-11-11T16:54:21;19.38;;;15.18;;
52848;SDS011;38714;53.180;5.812;2022-11-11T16:56:59;25.17;;;17.25;;
52848;SDS011;38714;53.180;5.812;2022-11-11T16:59:36;25.35;;;16.08;;
52848;SDS011;38714;53.180;5.812;2022-11-11T17:02:15;21.00;;;16.25;;
52848;SDS011;38714;53.180;5.812;2022-11-11T17:04:49;21.88;;;16.10;;
52848;SDS011;38714;53.180;5.812;2022-11-11T17:07:36;18.80;;;14.80;;
52848;SDS011;38714;53.180;5.812;2022-11-11T17:12:33;31.40;;;20.52;;
52848;SDS011;38714;53.180;5.812;2022-11-11T17:15:01;28.63;;;18.77;;
52848;SDS011;38714;53.180;5.812;2022-11-11T17:17:31;32.65;;;17.95;;
52848;SDS011;38714;53.180;5.812;2022-11-11T17:19:57;24.73;;;15.13;;
52848;SDS011;38714;53.180;5.812;2022-11-11T17:22:26;23.65;;;16.52;;
52848;SDS011;38714;53.180;5.812;2022-11-11T17:24:51;21.10;;;15.63;;
52848;SDS011;38714;53.180;5.812;2022-11-11T17:27:17;28.08;;;20.00;;
52848;SDS011;38714;53.180;5.812;2022-11-11T17:29:42;27.50;;;18.70;;
52848;SDS011;38714;53.180;5.812;2022-11-11T17:32:08;23.50;;;17.23;;
52848;SDS011;38714;53.180;5.812;2022-11-11T17:34:34;24.88;;;16.33;;